createdAt,value
2022-10-06T00:02:23.231Z,2.88
2022-10-06T00:05:46.137Z,3.95
2022-10-06T00:09:04.101Z,4.13
2022-10-06T00:12:27.135Z,5.38
2022-10-06T00:15:51.170Z,4.80
2022-10-06T00:19:08.056Z,7.47
2022-10-06T00:22:25.152Z,5.43
2022-10-06T00:25:48.139Z,4.93
2022-10-06T00:29:12.174Z,1.02
2022-10-06T00:32:36.126Z,4.40
2022-10-06T00:36:00.148Z,2.63
2022-10-06T00:39:24.177Z,2.70
2022-10-06T00:42:48.211Z,4.97
2022-10-06T00:46:12.237Z,2.05
2022-10-06T00:49:48.148Z,2.67
2022-10-06T00:53:13.284Z,3.00
2022-10-06T00:56:37.171Z,2.20
2022-10-06T01:00:01.171Z,1.67
2022-10-06T01:03:31.157Z,1.50
2022-10-06T01:07:01.212Z,1.45
2022-10-06T01:10:27.211Z,2.90
2022-10-06T01:13:51.181Z,4.82
2022-10-06T01:17:18.161Z,2.63
2022-10-06T01:20:42.190Z,3.17
2022-10-06T01:24:06.127Z,3.90
2022-10-06T01:27:31.178Z,2.38
2022-10-06T01:31:01.254Z,2.75
2022-10-06T01:34:26.237Z,3.08
2022-10-06T01:37:50.154Z,2.58
2022-10-06T01:41:14.188Z,2.53
2022-10-06T01:44:39.195Z,1.80
2022-10-06T01:48:03.149Z,1.83
2022-10-06T01:51:30.199Z,1.67
2022-10-06T01:54:54.143Z,1.75
2022-10-06T01:58:18.269Z,1.60
2022-10-06T02:01:44.251Z,1.15
2022-10-06T02:05:08.152Z,2.80
2022-10-06T02:08:36.255Z,2.08
2022-10-06T02:12:00.296Z,1.73
2022-10-06T02:15:29.176Z,2.22
2022-10-06T02:18:53.202Z,2.95
2022-10-06T02:22:17.242Z,6.35
2022-10-06T02:25:41.251Z,4.63
2022-10-06T02:29:06.197Z,6.70
2022-10-06T02:32:31.267Z,6.78
2022-10-06T02:35:55.275Z,5.43
2022-10-06T02:39:19.203Z,2.60
2022-10-06T02:42:43.210Z,3.65
2022-10-06T02:46:19.258Z,6.00
2022-10-06T02:49:43.234Z,4.43
2022-10-06T02:53:08.226Z,4.47
2022-10-06T02:56:34.183Z,3.95
2022-10-06T02:59:58.216Z,3.42
2022-10-06T03:03:23.188Z,3.85
2022-10-06T03:06:47.289Z,5.03
2022-10-06T03:10:17.273Z,3.85
2022-10-06T03:13:41.258Z,2.95
2022-10-06T03:17:05.199Z,4.53
2022-10-06T03:20:36.194Z,4.60
2022-10-06T03:24:04.160Z,3.10
2022-10-06T03:27:29.225Z,3.85
2022-10-06T03:30:56.339Z,4.57
2022-10-06T03:34:23.197Z,2.20
2022-10-06T03:37:49.186Z,3.50
2022-10-06T03:41:30.254Z,9.00
2022-10-06T03:48:19.231Z,3.70
2022-10-06T03:51:49.155Z,5.18
2022-10-06T03:55:18.235Z,4.60
2022-10-06T03:58:43.220Z,6.75
2022-10-06T04:02:08.272Z,5.72
2022-10-06T04:05:34.182Z,5.32
2022-10-06T04:08:58.255Z,4.93
2022-10-06T04:12:23.186Z,5.07
2022-10-06T04:15:47.274Z,5.38
2022-10-06T04:19:13.251Z,8.38
2022-10-06T04:22:36.805Z,4.07
2022-10-06T04:25:56.069Z,2.90
2022-10-06T04:29:20.332Z,4.32
2022-10-06T04:32:47.227Z,6.53
2022-10-06T04:36:13.243Z,5.35
2022-10-06T04:39:37.219Z,7.05
2022-10-06T04:43:01.234Z,5.15
2022-10-06T04:46:42.174Z,5.53
2022-10-06T04:50:10.193Z,4.70
2022-10-06T04:53:54.177Z,4.40
2022-10-06T04:57:19.233Z,6.13
2022-10-06T05:00:44.222Z,5.65
2022-10-06T05:04:11.273Z,4.20
2022-10-06T05:07:35.228Z,3.65
2022-10-06T05:10:58.210Z,6.28
2022-10-06T05:14:22.218Z,4.18
2022-10-06T05:17:47.229Z,2.75
2022-10-06T05:21:22.260Z,5.00
2022-10-06T05:24:48.214Z,3.13
2022-10-06T05:28:13.281Z,3.90
2022-10-06T05:31:40.398Z,4.63
2022-10-06T05:35:05.242Z,5.45
2022-10-06T05:38:30.818Z,4.47
2022-10-06T05:41:55.234Z,4.03
2022-10-06T05:45:19.273Z,5.40
2022-10-06T05:48:45.182Z,6.13
2022-10-06T05:52:12.271Z,10.10
2022-10-06T05:55:37.270Z,6.68
2022-10-06T05:59:06.239Z,6.38
2022-10-06T06:02:30.299Z,5.18
2022-10-06T06:05:58.200Z,8.82
2022-10-06T06:09:28.231Z,15.43
2022-10-06T06:12:56.243Z,15.25
2022-10-06T06:16:30.311Z,17.17
2022-10-06T06:19:48.836Z,21.75
2022-10-06T06:23:06.299Z,13.57
2022-10-06T06:26:32.269Z,8.98
2022-10-06T06:29:56.250Z,7.90
2022-10-06T06:33:21.225Z,8.60
2022-10-06T06:36:55.224Z,8.38
2022-10-06T06:40:20.233Z,12.60
2022-10-06T06:43:44.211Z,8.52
2022-10-06T06:47:20.915Z,8.35
2022-10-06T06:50:49.251Z,3.80
2022-10-06T06:54:14.252Z,7.70
2022-10-06T06:57:43.308Z,6.93
2022-10-06T07:01:08.351Z,5.93
2022-10-06T07:04:34.294Z,7.00
2022-10-06T07:08:00.232Z,6.40
2022-10-06T07:11:48.265Z,5.95
2022-10-06T07:15:36.240Z,7.03
2022-10-06T07:19:23.820Z,8.73
2022-10-06T07:23:00.711Z,9.98
2022-10-06T07:26:18.265Z,10.77
2022-10-06T07:29:43.229Z,6.53
2022-10-06T07:33:07.318Z,6.15
2022-10-06T07:36:32.258Z,9.82
2022-10-06T07:39:57.219Z,8.13
2022-10-06T07:43:21.281Z,11.07
2022-10-06T07:46:46.295Z,17.05
2022-10-06T07:50:24.298Z,12.00
2022-10-06T07:53:49.284Z,12.25
2022-10-06T07:57:43.262Z,18.35
2022-10-06T08:01:07.257Z,22.75
2022-10-06T08:04:31.256Z,19.70
2022-10-06T08:07:55.241Z,10.82
2022-10-06T08:11:21.365Z,7.07
2022-10-06T08:14:47.241Z,8.13
2022-10-06T08:18:33.679Z,7.93
2022-10-06T08:21:50.827Z,4.10
2022-10-06T08:25:08.649Z,4.38
2022-10-06T08:28:34.380Z,6.18
2022-10-06T08:31:58.460Z,5.18
2022-10-06T08:35:22.286Z,3.47
2022-10-06T08:38:46.329Z,3.25
2022-10-06T08:42:11.239Z,1.88
2022-10-06T08:45:44.323Z,2.95
2022-10-06T08:52:39.286Z,3.70
2022-10-06T08:56:14.309Z,5.38
2022-10-06T08:59:39.311Z,4.15
2022-10-06T09:03:04.316Z,5.70
2022-10-06T09:06:52.297Z,4.75
2022-10-06T09:10:42.277Z,2.40
2022-10-06T09:14:22.253Z,4.45
2022-10-06T09:17:55.308Z,4.25
2022-10-06T09:24:58.305Z,2.35
2022-10-06T09:28:27.344Z,3.72
2022-10-06T09:31:59.310Z,3.30
2022-10-06T09:35:38.306Z,2.40
2022-10-06T09:39:07.331Z,2.72
2022-10-06T09:42:52.269Z,2.17
2022-10-06T09:46:36.339Z,3.55
2022-10-06T09:50:37.323Z,2.97
2022-10-06T09:54:28.340Z,2.50
2022-10-06T09:57:52.316Z,2.53
2022-10-06T10:01:24.349Z,2.25
2022-10-06T10:04:53.267Z,2.85
2022-10-06T10:08:38.335Z,4.07
2022-10-06T10:12:41.274Z,3.92
2022-10-06T10:16:12.378Z,1.85
2022-10-06T10:19:44.277Z,1.83
2022-10-06T10:23:12.318Z,1.90
2022-10-06T10:26:59.894Z,3.22
2022-10-06T10:30:19.350Z,2.78
2022-10-06T10:34:12.495Z,2.00
2022-10-06T10:37:50.297Z,2.80
2022-10-06T10:41:17.344Z,2.60
2022-10-06T10:44:52.273Z,4.50
2022-10-06T10:48:25.298Z,2.40
2022-10-06T10:55:43.369Z,3.13
2022-10-06T10:59:15.295Z,8.02
2022-10-06T11:02:38.376Z,8.55
2022-10-06T11:06:12.287Z,5.15
2022-10-06T11:09:52.320Z,4.35
2022-10-06T11:13:34.478Z,2.45
2022-10-06T11:17:01.295Z,2.42
2022-10-06T11:21:01.351Z,6.63
2022-10-06T11:24:46.367Z,5.53
2022-10-06T11:28:21.428Z,9.95
2022-10-06T11:32:04.409Z,12.70
2022-10-06T11:35:38.338Z,9.45
2022-10-06T11:39:09.336Z,20.77
2022-10-06T11:42:50.335Z,36.72
2022-10-06T11:46:31.051Z,49.47
2022-10-06T11:50:07.330Z,38.85
2022-10-06T11:53:53.319Z,29.33
2022-10-06T11:57:17.324Z,22.73
2022-10-06T12:00:41.297Z,17.80
2022-10-06T12:04:24.842Z,13.77
2022-10-06T12:08:11.347Z,14.85
2022-10-06T12:11:55.402Z,15.43
2022-10-06T12:16:58.220Z,23.15
2022-10-06T12:19:26.326Z,52.40
2022-10-06T12:22:55.353Z,6.03
2022-10-06T12:26:44.411Z,5.80
2022-10-06T12:30:11.927Z,8.02
2022-10-06T12:33:46.420Z,15.50
2022-10-06T12:37:44.347Z,14.60
2022-10-06T12:41:09.332Z,15.57
2022-10-06T12:44:45.303Z,14.60
2022-10-06T12:48:10.400Z,21.05
2022-10-06T12:51:51.359Z,8.32
2022-10-06T12:55:43.399Z,14.45
2022-10-06T12:59:09.407Z,12.48
2022-10-06T13:02:35.471Z,12.18
2022-10-06T13:06:08.313Z,14.95
2022-10-06T13:12:58.323Z,16.70
2022-10-06T13:16:24.393Z,9.05
2022-10-06T13:19:48.372Z,12.90
2022-10-06T13:23:18.391Z,11.50
2022-10-06T13:26:45.320Z,12.00
2022-10-06T13:30:38.348Z,13.20
2022-10-06T13:34:13.374Z,9.48
2022-10-06T13:37:37.391Z,11.68
2022-10-06T13:41:37.329Z,9.85
2022-10-06T13:45:22.371Z,4.25
2022-10-06T13:48:46.341Z,8.52
2022-10-06T13:52:12.923Z,14.45
2022-10-06T13:55:40.363Z,7.80
2022-10-06T13:59:04.431Z,9.23
2022-10-06T14:02:36.428Z,7.10
2022-10-06T14:06:00.370Z,9.95
2022-10-06T14:09:26.329Z,10.77
2022-10-06T14:12:51.376Z,9.05
2022-10-06T14:16:23.464Z,8.90
2022-10-06T14:19:53.403Z,11.88
2022-10-06T14:23:17.423Z,9.45
2022-10-06T14:26:47.365Z,22.55
2022-10-06T14:30:12.523Z,23.02
2022-10-06T14:33:38.411Z,20.02
2022-10-06T14:37:05.393Z,22.52
2022-10-06T14:40:30.369Z,29.73
2022-10-06T14:43:55.352Z,80.55
2022-10-06T14:47:19.394Z,92.95
2022-10-06T14:50:43.427Z,38.47
2022-10-06T14:54:09.344Z,22.30
2022-10-06T14:57:33.436Z,22.73
2022-10-06T15:00:57.394Z,13.73
2022-10-06T15:04:32.416Z,12.60
2022-10-06T15:08:14.339Z,18.20
2022-10-06T15:11:40.391Z,38.80
2022-10-06T15:15:05.409Z,33.08
2022-10-06T15:18:30.392Z,37.08
2022-10-06T15:21:56.409Z,39.88
2022-10-06T15:25:39.350Z,46.28
2022-10-06T15:29:09.396Z,25.27
2022-10-06T15:32:33.382Z,17.38
2022-10-06T15:35:58.364Z,16.23
2022-10-06T15:39:25.559Z,12.73
2022-10-06T15:42:48.398Z,10.18
2022-10-06T15:46:12.446Z,12.80
2022-10-06T15:49:40.471Z,9.70
2022-10-06T15:53:05.381Z,10.68
2022-10-06T15:56:29.419Z,10.55
2022-10-06T15:59:53.419Z,8.32
2022-10-06T16:03:32.431Z,7.18
2022-10-06T16:06:58.402Z,7.95
2022-10-06T16:10:21.587Z,6.78
2022-10-06T16:13:46.383Z,9.40
2022-10-06T16:17:10.402Z,9.80
2022-10-06T16:20:34.377Z,10.82
2022-10-06T16:23:58.365Z,12.10
2022-10-06T16:27:24.446Z,9.30
2022-10-06T16:30:48.416Z,12.05
2022-10-06T16:34:12.455Z,9.73
2022-10-06T16:37:36.369Z,10.57
2022-10-06T16:41:14.425Z,8.70
2022-10-06T16:44:39.371Z,9.13
2022-10-06T16:48:03.420Z,8.20
2022-10-06T16:51:38.400Z,9.45
2022-10-06T16:55:04.408Z,10.27
2022-10-06T16:58:29.423Z,11.43
2022-10-06T17:01:53.433Z,12.98
2022-10-06T17:05:17.455Z,19.77
2022-10-06T17:08:40.449Z,21.08
2022-10-06T17:12:15.367Z,15.85
2022-10-06T17:15:38.449Z,12.20
2022-10-06T17:19:06.382Z,13.60
2022-10-06T17:22:30.472Z,11.38
2022-10-06T17:25:54.411Z,11.35
2022-10-06T17:29:26.537Z,13.52
2022-10-06T17:32:52.465Z,16.23
2022-10-06T17:36:25.454Z,14.15
2022-10-06T17:39:49.462Z,11.95
2022-10-06T17:43:07.424Z,11.00
2022-10-06T17:46:33.440Z,17.98
2022-10-06T17:49:58.412Z,18.17
2022-10-06T17:53:22.424Z,20.70
2022-10-06T17:56:48.480Z,21.65
2022-10-06T18:00:13.451Z,17.15
2022-10-06T18:03:38.457Z,23.33
2022-10-06T18:07:03.407Z,30.88
2022-10-06T18:10:45.451Z,14.07
2022-10-06T18:14:11.421Z,29.65
2022-10-06T18:17:36.449Z,43.00
2022-10-06T18:21:00.432Z,32.05
2022-10-06T18:24:35.468Z,11.55
2022-10-06T18:28:00.515Z,10.05
2022-10-06T18:31:24.530Z,7.28
2022-10-06T18:38:36.484Z,5.75
2022-10-06T18:42:00.432Z,5.40
2022-10-06T18:45:43.458Z,6.75
2022-10-06T18:49:08.390Z,5.32
2022-10-06T18:52:32.486Z,7.18
2022-10-06T18:55:57.393Z,6.25
2022-10-06T18:59:24.474Z,7.35
2022-10-06T19:02:48.693Z,8.25
2022-10-06T19:06:11.478Z,4.75
2022-10-06T19:09:37.440Z,5.07
2022-10-06T19:13:01.428Z,5.35
2022-10-06T19:16:26.493Z,6.20
2022-10-06T19:20:03.444Z,5.78
2022-10-06T19:23:27.488Z,8.18
2022-10-06T19:26:52.414Z,3.85
2022-10-06T19:30:17.503Z,5.05
2022-10-06T19:33:41.454Z,5.25
2022-10-06T19:37:06.499Z,5.38
2022-10-06T19:40:24.088Z,6.13
2022-10-06T19:43:41.474Z,4.82
2022-10-06T19:47:05.451Z,5.55
2022-10-06T19:50:30.457Z,5.57
2022-10-06T19:53:59.467Z,5.47
2022-10-06T19:57:23.519Z,6.28
2022-10-06T20:00:49.395Z,5.55
2022-10-06T20:04:13.536Z,4.20
2022-10-06T20:07:38.411Z,5.18
2022-10-06T20:11:03.449Z,5.85
2022-10-06T20:14:34.464Z,6.25
2022-10-06T20:17:58.475Z,6.93
2022-10-06T20:21:27.416Z,3.63
2022-10-06T20:24:51.448Z,4.97
2022-10-06T20:28:17.485Z,4.35
2022-10-06T20:31:48.455Z,4.03
2022-10-06T20:35:12.476Z,4.88
2022-10-06T20:38:55.502Z,4.18
2022-10-06T20:42:15.169Z,3.95
2022-10-06T20:45:32.509Z,4.13
2022-10-06T20:48:58.482Z,5.88
2022-10-06T20:52:22.495Z,4.43
2022-10-06T20:55:46.445Z,5.97
2022-10-06T20:59:10.513Z,3.72
2022-10-06T21:02:35.532Z,5.85
2022-10-06T21:06:05.418Z,3.65
2022-10-06T21:09:32.462Z,6.03
2022-10-06T21:12:56.420Z,6.15
2022-10-06T21:16:20.539Z,5.18
2022-10-06T21:19:45.449Z,6.00
2022-10-06T21:23:10.462Z,6.35
2022-10-06T21:26:36.436Z,5.78
2022-10-06T21:30:00.457Z,7.55
2022-10-06T21:33:24.451Z,7.38
2022-10-06T21:36:48.471Z,5.18
2022-10-06T21:40:12.453Z,6.65
2022-10-06T21:43:39.470Z,6.25
2022-10-06T21:47:10.494Z,3.90
2022-10-06T21:50:34.465Z,4.80
2022-10-06T21:53:58.443Z,4.78
2022-10-06T21:57:23.523Z,4.57
2022-10-06T22:00:47.480Z,5.57
2022-10-06T22:04:12.468Z,3.90
2022-10-06T22:07:36.435Z,4.78
2022-10-06T22:11:00.478Z,5.15
2022-10-06T22:14:31.445Z,6.45
2022-10-06T22:17:55.464Z,4.97
2022-10-06T22:21:28.457Z,10.32
2022-10-06T22:24:52.483Z,6.75
2022-10-06T22:28:16.473Z,4.85
2022-10-06T22:31:41.539Z,5.03
2022-10-06T22:35:06.446Z,3.63
2022-10-06T22:38:30.569Z,3.92
2022-10-06T22:41:54.446Z,5.38
2022-10-06T22:45:18.502Z,5.15
2022-10-06T22:48:43.453Z,3.40
2022-10-06T22:52:07.514Z,4.65
2022-10-06T22:55:31.471Z,5.68
2022-10-06T22:58:55.516Z,5.97
2022-10-06T23:02:20.451Z,5.82
2022-10-06T23:05:44.510Z,4.28
2022-10-06T23:09:08.462Z,3.78
2022-10-06T23:12:32.514Z,5.90
2022-10-06T23:15:56.509Z,5.55
2022-10-06T23:19:21.520Z,5.00
2022-10-06T23:22:45.478Z,5.43
2022-10-06T23:26:09.508Z,3.80
2022-10-06T23:29:33.484Z,3.63
2022-10-06T23:32:56.503Z,3.47
2022-10-06T23:36:23.660Z,3.97
2022-10-06T23:39:46.501Z,3.45
2022-10-06T23:43:10.545Z,4.80
2022-10-06T23:46:34.604Z,5.07
2022-10-06T23:49:58.481Z,4.32
2022-10-06T23:53:22.534Z,3.42
2022-10-06T23:56:46.540Z,4.90
